sensor_id;sensor_type;location;lat;lon;timestamp;pressure;altitude;pressure_sealevel;temperature;humidity
50292;BME280;36190;54.980;73.388;2023-04-15T00:00:45;100646.50;;;-6.46;44.32
50292;BME280;36190;54.980;73.388;2023-04-15T00:03:13;100639.47;;;-6.42;44.37
50292;BME280;36190;54.980;73.388;2023-04-15T00:05:42;100641.00;;;-6.37;44.30
50292;BME280;36190;54.980;73.388;2023-04-15T00:08:10;100643.53;;;-6.35;44.22
50292;BME280;36190;54.980;73.388;2023-04-15T00:10:37;100658.25;;;-6.36;44.33
50292;BME280;36190;54.980;73.388;2023-04-15T00:13:05;100671.25;;;-6.36;44.27
50292;BME280;36190;54.980;73.388;2023-04-15T00:15:32;100683.41;;;-6.36;44.37
50292;BME280;36190;54.980;73.388;2023-04-15T00:17:59;100674.94;;;-6.43;44.47
50292;BME280;36190;54.980;73.388;2023-04-15T00:20:27;100681.84;;;-6.42;44.53
50292;BME280;36190;54.980;73.388;2023-04-15T00:22:56;100679.34;;;-6.45;44.45
50292;BME280;36190;54.980;73.388;2023-04-15T00:25:24;100677.53;;;-6.43;44.41
50292;BME280;36190;54.980;73.388;2023-04-15T00:27:51;100671.44;;;-6.42;44.66
50292;BME280;36190;54.980;73.388;2023-04-15T00:30:19;100667.91;;;-6.39;44.74
50292;BME280;36190;54.980;73.388;2023-04-15T00:32:46;100661.13;;;-6.43;44.62
50292;BME280;36190;54.980;73.388;2023-04-15T00:35:14;100657.78;;;-6.47;44.67
50292;BME280;36190;54.980;73.388;2023-04-15T00:37:42;100655.28;;;-6.50;44.58
50292;BME280;36190;54.980;73.388;2023-04-15T00:40:12;100656.31;;;-6.54;44.87
50292;BME280;36190;54.980;73.388;2023-04-15T00:42:40;100652.97;;;-6.58;44.92
50292;BME280;36190;54.980;73.388;2023-04-15T00:45:08;100645.22;;;-6.59;44.83
50292;BME280;36190;54.980;73.388;2023-04-15T00:47:36;100645.13;;;-6.56;44.90
50292;BME280;36190;54.980;73.388;2023-04-15T00:50:06;100641.63;;;-6.55;44.87
50292;BME280;36190;54.980;73.388;2023-04-15T00:52:34;100641.63;;;-6.55;44.95
50292;BME280;36190;54.980;73.388;2023-04-15T00:55:02;100631.03;;;-6.49;45.02
50292;BME280;36190;54.980;73.388;2023-04-15T00:57:32;100635.34;;;-6.48;44.96
50292;BME280;36190;54.980;73.388;2023-04-15T00:59:59;100636.31;;;-6.52;45.06
50292;BME280;36190;54.980;73.388;2023-04-15T01:02:27;100648.19;;;-6.45;44.85
50292;BME280;36190;54.980;73.388;2023-04-15T01:04:55;100665.25;;;-6.38;44.86
50292;BME280;36190;54.980;73.388;2023-04-15T01:07:23;100675.53;;;-6.35;44.88
50292;BME280;36190;54.980;73.388;2023-04-15T01:09:51;100692.72;;;-6.30;44.75
50292;BME280;36190;54.980;73.388;2023-04-15T01:12:19;100699.59;;;-6.29;44.85
50292;BME280;36190;54.980;73.388;2023-04-15T01:14:48;100678.63;;;-6.23;44.74
50292;BME280;36190;54.980;73.388;2023-04-15T01:17:16;100683.69;;;-6.20;44.69
50292;BME280;36190;54.980;73.388;2023-04-15T01:19:43;100681.91;;;-6.18;44.76
50292;BME280;36190;54.980;73.388;2023-04-15T01:22:11;100685.31;;;-6.16;44.59
50292;BME280;36190;54.980;73.388;2023-04-15T01:24:39;100698.22;;;-6.14;44.53
50292;BME280;36190;54.980;73.388;2023-04-15T01:27:09;100702.47;;;-6.12;44.66
50292;BME280;36190;54.980;73.388;2023-04-15T01:29:37;100717.06;;;-6.08;44.53
50292;BME280;36190;54.980;73.388;2023-04-15T01:32:04;100724.50;;;-5.98;44.52
50292;BME280;36190;54.980;73.388;2023-04-15T01:34:32;100715.59;;;-5.91;44.41
50292;BME280;36190;54.980;73.388;2023-04-15T01:37:00;100706.78;;;-5.87;44.39
50292;BME280;36190;54.980;73.388;2023-04-15T01:39:27;100681.56;;;-5.85;44.19
50292;BME280;36190;54.980;73.388;2023-04-15T01:41:55;100651.41;;;-5.89;44.15
50292;BME280;36190;54.980;73.388;2023-04-15T01:44:24;100644.78;;;-5.98;44.29
50292;BME280;36190;54.980;73.388;2023-04-15T01:46:52;100631.34;;;-6.08;44.33
50292;BME280;36190;54.980;73.388;2023-04-15T01:49:19;100614.16;;;-6.12;44.52
50292;BME280;36190;54.980;73.388;2023-04-15T01:51:47;100618.50;;;-6.12;44.62
50292;BME280;36190;54.980;73.388;2023-04-15T01:54:15;100595.69;;;-6.04;44.49
50292;BME280;36190;54.980;73.388;2023-04-15T01:56:42;100591.63;;;-5.89;44.35
50292;BME280;36190;54.980;73.388;2023-04-15T01:59:10;100591.16;;;-5.76;44.14
50292;BME280;36190;54.980;73.388;2023-04-15T02:01:39;100597.03;;;-5.71;44.01
50292;BME280;36190;54.980;73.388;2023-04-15T02:04:06;100592.28;;;-5.60;43.98
50292;BME280;36190;54.980;73.388;2023-04-15T02:06:40;100584.78;;;-5.45;43.93
50292;BME280;36190;54.980;73.388;2023-04-15T02:09:08;100592.34;;;-5.39;43.75
50292;BME280;36190;54.980;73.388;2023-04-15T02:11:35;100591.00;;;-5.27;43.42
50292;BME280;36190;54.980;73.388;2023-04-15T02:14:03;100603.88;;;-5.24;43.35
50292;BME280;36190;54.980;73.388;2023-04-15T02:16:32;100601.91;;;-5.17;43.26
50292;BME280;36190;54.980;73.388;2023-04-15T02:19:00;100604.00;;;-5.05;43.11
50292;BME280;36190;54.980;73.388;2023-04-15T02:21:29;100601.72;;;-4.92;43.07
50292;BME280;36190;54.980;73.388;2023-04-15T02:23:56;100602.41;;;-4.87;42.82
50292;BME280;36190;54.980;73.388;2023-04-15T02:26:24;100587.69;;;-4.88;42.59
50292;BME280;36190;54.980;73.388;2023-04-15T02:28:51;100594.25;;;-5.00;42.73
50292;BME280;36190;54.980;73.388;2023-04-15T02:31:18;100588.00;;;-4.95;42.86
50292;BME280;36190;54.980;73.388;2023-04-15T02:33:46;100595.94;;;-4.99;42.69
50292;BME280;36190;54.980;73.388;2023-04-15T02:36:15;100578.88;;;-5.06;42.70
50292;BME280;36190;54.980;73.388;2023-04-15T02:38:43;100591.59;;;-4.98;42.89
50292;BME280;36190;54.980;73.388;2023-04-15T02:41:10;100594.91;;;-4.74;42.68
50292;BME280;36190;54.980;73.388;2023-04-15T02:43:38;100589.94;;;-4.38;42.49
50292;BME280;36190;54.980;73.388;2023-04-15T02:46:06;100594.66;;;-4.07;42.19
50292;BME280;36190;54.980;73.388;2023-04-15T02:48:33;100607.63;;;-3.86;41.77
50292;BME280;36190;54.980;73.388;2023-04-15T02:51:11;100611.44;;;-3.74;41.35
50292;BME280;36190;54.980;73.388;2023-04-15T02:53:40;100616.09;;;-3.81;41.41
50292;BME280;36190;54.980;73.388;2023-04-15T02:56:08;100625.38;;;-3.94;41.25
50292;BME280;36190;54.980;73.388;2023-04-15T02:58:36;100614.25;;;-3.98;41.33
50292;BME280;36190;54.980;73.388;2023-04-15T03:01:04;100620.34;;;-4.18;41.22
50292;BME280;36190;54.980;73.388;2023-04-15T03:03:32;100630.84;;;-4.40;41.43
50292;BME280;36190;54.980;73.388;2023-04-15T03:05:59;100633.19;;;-4.55;41.49
50292;BME280;36190;54.980;73.388;2023-04-15T03:08:27;100641.72;;;-4.51;41.56
50292;BME280;36190;54.980;73.388;2023-04-15T03:10:57;100645.72;;;-4.43;41.50
50292;BME280;36190;54.980;73.388;2023-04-15T03:13:25;100644.47;;;-4.34;41.48
50292;BME280;36190;54.980;73.388;2023-04-15T03:15:53;100643.63;;;-4.34;41.25
50292;BME280;36190;54.980;73.388;2023-04-15T03:18:20;100634.31;;;-4.40;41.12
50292;BME280;36190;54.980;73.388;2023-04-15T03:20:48;100631.53;;;-4.35;40.99
50292;BME280;36190;54.980;73.388;2023-04-15T03:23:15;100630.66;;;-4.36;40.70
50292;BME280;36190;54.980;73.388;2023-04-15T03:25:44;100624.22;;;-4.27;40.59
50292;BME280;36190;54.980;73.388;2023-04-15T03:28:13;100624.31;;;-4.09;40.18
50292;BME280;36190;54.980;73.388;2023-04-15T03:30:40;100614.25;;;-3.98;39.78
50292;BME280;36190;54.980;73.388;2023-04-15T03:33:08;100611.03;;;-3.84;39.82
50292;BME280;36190;54.980;73.388;2023-04-15T03:35:35;100613.78;;;-3.68;39.46
50292;BME280;36190;54.980;73.388;2023-04-15T03:38:03;100617.03;;;-3.63;38.94
50292;BME280;36190;54.980;73.388;2023-04-15T03:40:30;100613.56;;;-3.63;38.92
50292;BME280;36190;54.980;73.388;2023-04-15T03:42:58;100600.66;;;-3.47;38.77
50292;BME280;36190;54.980;73.388;2023-04-15T03:45:27;100600.97;;;-3.36;38.30
50292;BME280;36190;54.980;73.388;2023-04-15T03:47:54;100602.84;;;-3.38;38.00
50292;BME280;36190;54.980;73.388;2023-04-15T03:50:22;100595.69;;;-3.34;37.70
50292;BME280;36190;54.980;73.388;2023-04-15T03:52:49;100589.13;;;-3.24;37.68
50292;BME280;36190;54.980;73.388;2023-04-15T03:55:17;100572.13;;;-3.15;37.45
50292;BME280;36190;54.980;73.388;2023-04-15T03:57:44;100582.16;;;-3.06;37.20
50292;BME280;36190;54.980;73.388;2023-04-15T04:00:12;100585.75;;;-2.91;37.08
50292;BME280;36190;54.980;73.388;2023-04-15T04:02:41;100592.16;;;-2.79;36.81
50292;BME280;36190;54.980;73.388;2023-04-15T04:05:10;100594.00;;;-2.81;36.53
50292;BME280;36190;54.980;73.388;2023-04-15T04:07:37;100591.16;;;-2.94;36.36
50292;BME280;36190;54.980;73.388;2023-04-15T04:10:06;100595.81;;;-3.00;36.36
50292;BME280;36190;54.980;73.388;2023-04-15T04:12:33;100591.22;;;-2.95;36.33
50292;BME280;36190;54.980;73.388;2023-04-15T04:15:01;100599.44;;;-2.85;36.28
50292;BME280;36190;54.980;73.388;2023-04-15T04:17:28;100621.94;;;-2.83;36.13
50292;BME280;36190;54.980;73.388;2023-04-15T04:19:57;100627.84;;;-2.79;36.04
50292;BME280;36190;54.980;73.388;2023-04-15T04:22:25;100631.16;;;-2.76;36.04
50292;BME280;36190;54.980;73.388;2023-04-15T04:24:52;100627.94;;;-2.81;35.74
50292;BME280;36190;54.980;73.388;2023-04-15T04:27:19;100632.47;;;-2.84;35.81
50292;BME280;36190;54.980;73.388;2023-04-15T04:29:47;100635.69;;;-2.79;35.82
50292;BME280;36190;54.980;73.388;2023-04-15T04:32:14;100643.28;;;-2.74;35.58
50292;BME280;36190;54.980;73.388;2023-04-15T04:34:42;100637.69;;;-2.84;35.37
50292;BME280;36190;54.980;73.388;2023-04-15T04:37:11;100642.06;;;-2.85;35.48
50292;BME280;36190;54.980;73.388;2023-04-15T04:39:38;100639.63;;;-2.70;35.47
50292;BME280;36190;54.980;73.388;2023-04-15T04:42:06;100648.31;;;-2.52;35.36
50292;BME280;36190;54.980;73.388;2023-04-15T04:44:33;100653.91;;;-2.42;35.09
50292;BME280;36190;54.980;73.388;2023-04-15T04:47:00;100646.53;;;-2.52;34.82
50292;BME280;36190;54.980;73.388;2023-04-15T04:49:28;100647.63;;;-2.56;34.87
50292;BME280;36190;54.980;73.388;2023-04-15T04:51:56;100647.91;;;-2.44;34.64
50292;BME280;36190;54.980;73.388;2023-04-15T04:54:25;100652.38;;;-2.46;34.20
50292;BME280;36190;54.980;73.388;2023-04-15T04:56:52;100653.22;;;-2.64;33.95
50292;BME280;36190;54.980;73.388;2023-04-15T04:59:20;100651.00;;;-2.71;34.28
50292;BME280;36190;54.980;73.388;2023-04-15T05:01:47;100652.38;;;-2.64;34.15
50292;BME280;36190;54.980;73.388;2023-04-15T05:04:15;100647.44;;;-2.53;34.03
50292;BME280;36190;54.980;73.388;2023-04-15T05:06:42;100636.41;;;-2.40;34.00
50292;BME280;36190;54.980;73.388;2023-04-15T05:09:10;100626.69;;;-2.38;33.90
50292;BME280;36190;54.980;73.388;2023-04-15T05:11:39;100621.41;;;-2.37;33.81
50292;BME280;36190;54.980;73.388;2023-04-15T05:14:06;100616.22;;;-2.21;34.01
50292;BME280;36190;54.980;73.388;2023-04-15T05:16:34;100612.63;;;-2.02;33.87
50292;BME280;36190;54.980;73.388;2023-04-15T05:19:01;100592.81;;;-1.90;33.74
50292;BME280;36190;54.980;73.388;2023-04-15T05:21:29;100595.03;;;-1.82;33.50
50292;BME280;36190;54.980;73.388;2023-04-15T05:23:56;100597.41;;;-1.77;33.54
50292;BME280;36190;54.980;73.388;2023-04-15T05:26:24;100605.50;;;-1.82;33.41
50292;BME280;36190;54.980;73.388;2023-04-15T05:28:53;100591.81;;;-1.87;33.44
50292;BME280;36190;54.980;73.388;2023-04-15T05:31:21;100603.13;;;-1.71;33.39
50292;BME280;36190;54.980;73.388;2023-04-15T05:33:49;100603.81;;;-1.67;33.37
50292;BME280;36190;54.980;73.388;2023-04-15T05:36:16;100598.16;;;-1.59;33.14
50292;BME280;36190;54.980;73.388;2023-04-15T05:38:44;100599.16;;;-1.46;33.17
50292;BME280;36190;54.980;73.388;2023-04-15T05:41:11;100607.34;;;-1.52;32.83
50292;BME280;36190;54.980;73.388;2023-04-15T05:43:40;100603.13;;;-1.71;32.91
50292;BME280;36190;54.980;73.388;2023-04-15T05:46:09;100599.00;;;-1.75;33.09
50292;BME280;36190;54.980;73.388;2023-04-15T05:48:36;100590.47;;;-1.78;33.03
50292;BME280;36190;54.980;73.388;2023-04-15T05:51:04;100595.03;;;-1.66;32.92
50292;BME280;36190;54.980;73.388;2023-04-15T05:53:32;100611.06;;;-1.56;32.73
50292;BME280;36190;54.980;73.388;2023-04-15T05:55:59;100597.25;;;-1.58;32.63
50292;BME280;36190;54.980;73.388;2023-04-15T05:58:27;100600.59;;;-1.56;32.62
50292;BME280;36190;54.980;73.388;2023-04-15T06:00:54;100601.97;;;-1.49;32.45
50292;BME280;36190;54.980;73.388;2023-04-15T06:03:23;100601.97;;;-1.49;32.47
50292;BME280;36190;54.980;73.388;2023-04-15T06:05:51;100600.03;;;-1.45;32.71
50292;BME280;36190;54.980;73.388;2023-04-15T06:08:19;100594.09;;;-1.33;32.57
50292;BME280;36190;54.980;73.388;2023-04-15T06:10:47;100596.19;;;-1.23;32.24
50292;BME280;36190;54.980;73.388;2023-04-15T06:13:14;100599.31;;;-1.17;32.11
50292;BME280;36190;54.980;73.388;2023-04-15T06:15:41;100597.38;;;-1.13;31.98
50292;BME280;36190;54.980;73.388;2023-04-15T06:18:09;100597.97;;;-1.24;31.96
50292;BME280;36190;54.980;73.388;2023-04-15T06:20:38;100589.84;;;-1.35;32.15
50292;BME280;36190;54.980;73.388;2023-04-15T06:23:06;100599.25;;;-1.31;32.16
50292;BME280;36190;54.980;73.388;2023-04-15T06:25:34;100598.31;;;-1.30;32.12
50292;BME280;36190;54.980;73.388;2023-04-15T06:28:01;100589.09;;;-1.21;32.15
50292;BME280;36190;54.980;73.388;2023-04-15T06:30:29;100578.38;;;-1.02;32.09
50292;BME280;36190;54.980;73.388;2023-04-15T06:32:56;100574.81;;;-0.85;31.82
50292;BME280;36190;54.980;73.388;2023-04-15T06:35:24;100579.69;;;-0.79;31.79
50292;BME280;36190;54.980;73.388;2023-04-15T06:37:53;100574.06;;;-0.87;31.58
50292;BME280;36190;54.980;73.388;2023-04-15T06:40:21;100574.06;;;-0.87;31.67
50292;BME280;36190;54.980;73.388;2023-04-15T06:42:48;100577.00;;;-0.77;31.65
50292;BME280;36190;54.980;73.388;2023-04-15T06:45:16;100580.34;;;-0.75;31.37
50292;BME280;36190;54.980;73.388;2023-04-15T06:47:44;100583.72;;;-0.73;31.45
50292;BME280;36190;54.980;73.388;2023-04-15T06:50:11;100571.28;;;-0.70;31.36
50292;BME280;36190;54.980;73.388;2023-04-15T06:52:39;100571.66;;;-0.61;31.34
50292;BME280;36190;54.980;73.388;2023-04-15T06:55:09;100565.06;;;-0.52;31.19
50292;BME280;36190;54.980;73.388;2023-04-15T06:57:36;100557.56;;;-0.44;31.29
50292;BME280;36190;54.980;73.388;2023-04-15T07:00:04;100558.31;;;-0.42;31.22
50292;BME280;36190;54.980;73.388;2023-04-15T07:02:32;100561.59;;;-0.38;31.17
50292;BME280;36190;54.980;73.388;2023-04-15T07:05:00;100558.31;;;-0.28;31.10
50292;BME280;36190;54.980;73.388;2023-04-15T07:07:27;100551.56;;;-0.17;30.97
50292;BME280;36190;54.980;73.388;2023-04-15T07:09:55;100548.00;;;-0.02;30.73
50292;BME280;36190;54.980;73.388;2023-04-15T07:12:24;100531.47;;;0.11;30.63
50292;BME280;36190;54.980;73.388;2023-04-15T07:14:52;100521.16;;;0.22;30.62
50292;BME280;36190;54.980;73.388;2023-04-15T07:17:20;100524.59;;;0.23;30.53
50292;BME280;36190;54.980;73.388;2023-04-15T07:19:48;100516.00;;;0.21;30.43
50292;BME280;36190;54.980;73.388;2023-04-15T07:22:15;100515.47;;;0.29;30.52
50292;BME280;36190;54.980;73.388;2023-04-15T07:24:43;100503.25;;;0.42;30.34
50292;BME280;36190;54.980;73.388;2023-04-15T07:27:10;100508.69;;;0.53;30.20
50292;BME280;36190;54.980;73.388;2023-04-15T07:29:39;100503.94;;;0.59;29.80
50292;BME280;36190;54.980;73.388;2023-04-15T07:32:07;100504.38;;;0.65;30.10
50292;BME280;36190;54.980;73.388;2023-04-15T07:34:35;100498.97;;;0.81;29.90
50292;BME280;36190;54.980;73.388;2023-04-15T07:37:03;100496.44;;;0.93;29.78
50292;BME280;36190;54.980;73.388;2023-04-15T07:39:31;100497.72;;;1.00;29.74
50292;BME280;36190;54.980;73.388;2023-04-15T07:41:58;100479.47;;;1.12;29.60
50292;BME280;36190;54.980;73.388;2023-04-15T07:44:26;100482.59;;;1.17;29.40
50292;BME280;36190;54.980;73.388;2023-04-15T07:46:56;100471.66;;;1.23;29.23
50292;BME280;36190;54.980;73.388;2023-04-15T07:49:23;100479.44;;;1.37;29.34
50292;BME280;36190;54.980;73.388;2023-04-15T07:51:51;100471.88;;;1.46;29.01
50292;BME280;36190;54.980;73.388;2023-04-15T07:54:18;100468.50;;;1.44;28.72
50292;BME280;36190;54.980;73.388;2023-04-15T07:56:46;100454.19;;;1.35;28.92
50292;BME280;36190;54.980;73.388;2023-04-15T07:59:15;100454.41;;;1.45;28.79
50292;BME280;36190;54.980;73.388;2023-04-15T08:01:43;100446.22;;;1.74;28.89
50292;BME280;36190;54.980;73.388;2023-04-15T08:04:12;100442.47;;;2.02;28.54
50292;BME280;36190;54.980;73.388;2023-04-15T08:06:39;100446.59;;;2.18;28.29
50292;BME280;36190;54.980;73.388;2023-04-15T08:09:07;100444.31;;;2.38;28.13
50292;BME280;36190;54.980;73.388;2023-04-15T08:11:34;100446.72;;;2.41;27.81
50292;BME280;36190;54.980;73.388;2023-04-15T08:14:02;100445.31;;;2.48;27.72
50292;BME280;36190;54.980;73.388;2023-04-15T08:16:30;100434.94;;;2.69;27.73
50292;BME280;36190;54.980;73.388;2023-04-15T08:18:57;100432.38;;;3.03;27.46
50292;BME280;36190;54.980;73.388;2023-04-15T08:21:26;100419.69;;;3.32;27.24
50292;BME280;36190;54.980;73.388;2023-04-15T08:23:55;100428.06;;;3.60;27.00
50292;BME280;36190;54.980;73.388;2023-04-15T08:26:23;100421.94;;;3.59;26.59
50292;BME280;36190;54.980;73.388;2023-04-15T08:28:51;100414.38;;;3.66;26.77
50292;BME280;36190;54.980;73.388;2023-04-15T08:31:18;100408.38;;;3.75;26.37
50292;BME280;36190;54.980;73.388;2023-04-15T08:33:46;100413.13;;;3.93;26.17
50292;BME280;36190;54.980;73.388;2023-04-15T08:36:14;100398.97;;;4.26;25.95
50292;BME280;36190;54.980;73.388;2023-04-15T08:38:43;100401.66;;;4.58;25.65
50292;BME280;36190;54.980;73.388;2023-04-15T08:41:17;100385.56;;;4.61;25.55
50292;BME280;36190;54.980;73.388;2023-04-15T08:43:51;100383.75;;;4.61;25.46
50292;BME280;36190;54.980;73.388;2023-04-15T08:46:20;100378.50;;;4.92;25.51
50292;BME280;36190;54.980;73.388;2023-04-15T08:48:48;100373.16;;;5.14;25.31
50292;BME280;36190;54.980;73.388;2023-04-15T08:51:17;100383.34;;;5.18;25.28
50292;BME280;36190;54.980;73.388;2023-04-15T08:53:46;100367.56;;;5.07;25.08
50292;BME280;36190;54.980;73.388;2023-04-15T08:56:14;100376.03;;;5.01;25.10
50292;BME280;36190;54.980;73.388;2023-04-15T08:58:43;100380.56;;;5.20;25.21
50292;BME280;36190;54.980;73.388;2023-04-15T09:01:11;100364.22;;;5.46;25.18
50292;BME280;36190;54.980;73.388;2023-04-15T09:03:39;100375.81;;;5.55;24.72
50292;BME280;36190;54.980;73.388;2023-04-15T09:06:08;100373.44;;;5.61;24.88
50292;BME280;36190;54.980;73.388;2023-04-15T09:08:35;100373.34;;;5.83;24.71
50292;BME280;36190;54.980;73.388;2023-04-15T09:11:04;100366.78;;;5.97;24.53
50292;BME280;36190;54.980;73.388;2023-04-15T09:13:32;100374.09;;;6.14;24.55
50292;BME280;36190;54.980;73.388;2023-04-15T09:16:01;100380.78;;;6.18;24.42
50292;BME280;36190;54.980;73.388;2023-04-15T09:18:30;100370.97;;;5.99;24.52
50292;BME280;36190;54.980;73.388;2023-04-15T09:21:04;100359.41;;;5.81;24.32
50292;BME280;36190;54.980;73.388;2023-04-15T09:23:34;100375.28;;;5.81;24.38
50292;BME280;36190;54.980;73.388;2023-04-15T09:26:01;100368.31;;;5.80;24.19
50292;BME280;36190;54.980;73.388;2023-04-15T09:28:31;100366.25;;;5.83;24.07
50292;BME280;36190;54.980;73.388;2023-04-15T09:31:01;100359.03;;;6.25;24.06
50292;BME280;36190;54.980;73.388;2023-04-15T09:33:29;100363.41;;;6.73;23.94
50292;BME280;36190;54.980;73.388;2023-04-15T09:35:57;100357.22;;;6.93;23.70
50292;BME280;36190;54.980;73.388;2023-04-15T09:38:25;100358.31;;;7.00;23.67
50292;BME280;36190;54.980;73.388;2023-04-15T09:40:53;100361.31;;;7.15;23.66
50292;BME280;36190;54.980;73.388;2023-04-15T09:43:21;100359.19;;;7.19;23.46
50292;BME280;36190;54.980;73.388;2023-04-15T09:45:51;100361.09;;;6.98;23.38
50292;BME280;36190;54.980;73.388;2023-04-15T09:48:20;100377.91;;;6.79;23.46
50292;BME280;36190;54.980;73.388;2023-04-15T09:50:49;100372.50;;;6.61;23.70
50292;BME280;36190;54.980;73.388;2023-04-15T09:53:19;100358.97;;;6.54;23.48
50292;BME280;36190;54.980;73.388;2023-04-15T09:55:49;100373.59;;;6.78;23.34
50292;BME280;36190;54.980;73.388;2023-04-15T09:58:18;100366.72;;;6.85;23.32
50292;BME280;36190;54.980;73.388;2023-04-15T10:00:47;100384.19;;;7.16;23.16
50292;BME280;36190;54.980;73.388;2023-04-15T10:03:18;100377.84;;;7.37;22.56
50292;BME280;36190;54.980;73.388;2023-04-15T10:05:48;100365.56;;;7.54;22.91
50292;BME280;36190;54.980;73.388;2023-04-15T10:08:17;100371.38;;;7.67;22.46
50292;BME280;36190;54.980;73.388;2023-04-15T10:10:47;100366.00;;;7.77;22.45
50292;BME280;36190;54.980;73.388;2023-04-15T10:13:17;100375.53;;;7.88;22.20
50292;BME280;36190;54.980;73.388;2023-04-15T10:15:50;100370.59;;;8.30;22.25
50292;BME280;36190;54.980;73.388;2023-04-15T10:18:20;100376.56;;;8.50;21.95
50292;BME280;36190;54.980;73.388;2023-04-15T10:20:51;100376.69;;;8.40;21.81
50292;BME280;36190;54.980;73.388;2023-04-15T10:23:19;100374.38;;;8.45;21.66
50292;BME280;36190;54.980;73.388;2023-04-15T10:25:48;100348.88;;;8.52;21.63
50292;BME280;36190;54.980;73.388;2023-04-15T10:28:15;100375.69;;;8.59;21.30
50292;BME280;36190;54.980;73.388;2023-04-15T10:30:43;100378.81;;;8.36;21.51
50292;BME280;36190;54.980;73.388;2023-04-15T10:33:11;100377.19;;;8.44;21.41
50292;BME280;36190;54.980;73.388;2023-04-15T10:35:41;100379.78;;;8.80;21.03
50292;BME280;36190;54.980;73.388;2023-04-15T10:38:32;100382.84;;;9.20;20.54
50292;BME280;36190;54.980;73.388;2023-04-15T10:41:13;100383.94;;;9.52;20.42
50292;BME280;36190;54.980;73.388;2023-04-15T10:43:46;100374.56;;;9.99;20.01
50292;BME280;36190;54.980;73.388;2023-04-15T10:46:17;100373.78;;;10.49;19.95
50292;BME280;36190;54.980;73.388;2023-04-15T10:48:49;100380.44;;;10.69;19.45
50292;BME280;36190;54.980;73.388;2023-04-15T10:51:28;100370.59;;;10.62;19.28
50292;BME280;36190;54.980;73.388;2023-04-15T10:53:57;100380.25;;;10.54;19.58
50292;BME280;36190;54.980;73.388;2023-04-15T10:56:27;100381.09;;;10.71;19.17
50292;BME280;36190;54.980;73.388;2023-04-15T10:58:58;100386.06;;;10.75;19.24
50292;BME280;36190;54.980;73.388;2023-04-15T11:01:50;100375.13;;;11.18;18.95
50292;BME280;36190;54.980;73.388;2023-04-15T11:04:51;100390.09;;;11.67;18.72
50292;BME280;36190;54.980;73.388;2023-04-15T11:07:38;100376.03;;;11.73;18.19
50292;BME280;36190;54.980;73.388;2023-04-15T11:13:27;100383.44;;;12.18;18.50
50292;BME280;36190;54.980;73.388;2023-04-15T11:15:58;100377.50;;;12.31;18.49
50292;BME280;36190;54.980;73.388;2023-04-15T11:18:31;100379.22;;;12.47;18.30
50292;BME280;36190;54.980;73.388;2023-04-15T11:21:00;100380.13;;;12.54;17.93
50292;BME280;36190;54.980;73.388;2023-04-15T11:23:32;100383.66;;;12.70;18.10
50292;BME280;36190;54.980;73.388;2023-04-15T11:26:00;100388.44;;;12.59;18.12
50292;BME280;36190;54.980;73.388;2023-04-15T11:28:31;100387.72;;;12.27;18.32
50292;BME280;36190;54.980;73.388;2023-04-15T11:31:05;100374.50;;;12.02;18.51
50292;BME280;36190;54.980;73.388;2023-04-15T11:33:33;100374.13;;;11.82;18.58
50292;BME280;36190;54.980;73.388;2023-04-15T11:36:01;100373.44;;;11.88;18.56
50292;BME280;36190;54.980;73.388;2023-04-15T11:38:30;100373.25;;;12.36;18.30
50292;BME280;36190;54.980;73.388;2023-04-15T11:40:58;100374.53;;;12.64;18.11
50292;BME280;36190;54.980;73.388;2023-04-15T11:43:25;100357.06;;;12.53;18.08
50292;BME280;36190;54.980;73.388;2023-04-15T11:45:54;100351.97;;;12.43;18.16
50292;BME280;36190;54.980;73.388;2023-04-15T11:48:23;100374.09;;;12.90;17.91
50292;BME280;36190;54.980;73.388;2023-04-15T11:50:54;100381.63;;;13.62;17.65
50292;BME280;36190;54.980;73.388;2023-04-15T11:53:23;100372.28;;;14.16;17.61
50292;BME280;36190;54.980;73.388;2023-04-15T11:55:53;100379.78;;;14.28;17.28
50292;BME280;36190;54.980;73.388;2023-04-15T11:58:21;100367.81;;;14.24;17.39
50292;BME280;36190;54.980;73.388;2023-04-15T12:00:52;100384.34;;;14.27;17.11
50292;BME280;36190;54.980;73.388;2023-04-15T12:03:23;100376.16;;;14.36;16.86
50292;BME280;36190;54.980;73.388;2023-04-15T12:06:08;100382.63;;;14.70;16.58
50292;BME280;36190;54.980;73.388;2023-04-15T12:08:56;100385.31;;;14.98;16.20
50292;BME280;36190;54.980;73.388;2023-04-15T12:11:34;100382.03;;;15.03;15.80
50292;BME280;36190;54.980;73.388;2023-04-15T12:14:05;100383.94;;;15.09;16.39
50292;BME280;36190;54.980;73.388;2023-04-15T12:16:33;100375.19;;;15.43;16.13
50292;BME280;36190;54.980;73.388;2023-04-15T12:19:05;100372.69;;;15.41;15.92
50292;BME280;36190;54.980;73.388;2023-04-15T12:21:34;100376.69;;;15.10;16.05
50292;BME280;36190;54.980;73.388;2023-04-15T12:24:04;100364.44;;;14.72;16.24
50292;BME280;36190;54.980;73.388;2023-04-15T12:26:36;100374.56;;;14.41;16.10
50292;BME280;36190;54.980;73.388;2023-04-15T12:29:05;100372.94;;;13.60;16.53
50292;BME280;36190;54.980;73.388;2023-04-15T12:31:34;100371.69;;;12.81;16.78
50292;BME280;36190;54.980;73.388;2023-04-15T12:34:06;100378.97;;;12.72;17.11
50292;BME280;36190;54.980;73.388;2023-04-15T12:36:33;100364.56;;;13.18;16.70
50292;BME280;36190;54.980;73.388;2023-04-15T12:39:02;100367.31;;;13.55;16.77
50292;BME280;36190;54.980;73.388;2023-04-15T12:41:30;100371.28;;;13.59;16.65
50292;BME280;36190;54.980;73.388;2023-04-15T12:44:00;100371.78;;;13.47;16.61
50292;BME280;36190;54.980;73.388;2023-04-15T12:46:27;100371.28;;;13.44;16.56
50292;BME280;36190;54.980;73.388;2023-04-15T12:48:55;100376.34;;;13.69;16.54
50292;BME280;36190;54.980;73.388;2023-04-15T12:51:23;100376.31;;;14.27;16.19
50292;BME280;36190;54.980;73.388;2023-04-15T12:53:52;100383.91;;;14.74;16.01